createdAt,value
2023-05-21T00:00:15.711Z,19.40
2023-05-21T00:02:45.487Z,19.40
2023-05-21T00:05:18.714Z,19.30
2023-05-21T00:07:48.635Z,19.30
2023-05-21T00:10:18.346Z,19.30
2023-05-21T00:12:47.945Z,19.30
2023-05-21T00:15:17.384Z,19.30
2023-05-21T00:17:46.979Z,19.20
2023-05-21T00:20:18.300Z,19.20
2023-05-21T00:22:48.728Z,19.20
2023-05-21T00:25:18.638Z,19.20
2023-05-21T00:27:48.354Z,19.20
2023-05-21T00:30:18.055Z,19.10
2023-05-21T00:32:47.922Z,19.10
2023-05-21T00:35:19.731Z,19.20
2023-05-21T00:37:49.442Z,19.20
2023-05-21T00:40:21.511Z,19.10
2023-05-21T00:42:51.465Z,19.20
2023-05-21T00:45:21.544Z,19.10
2023-05-21T00:47:54.954Z,19.10
2023-05-21T00:50:28.329Z,19.10
2023-05-21T00:52:58.038Z,19.10
2023-05-21T00:55:28.151Z,19.00
2023-05-21T00:57:57.978Z,19.00
2023-05-21T01:00:28.596Z,19.00
2023-05-21T01:02:58.589Z,19.00
2023-05-21T01:05:30.790Z,19.10
2023-05-21T01:08:01.723Z,19.00
2023-05-21T01:10:31.629Z,19.00
2023-05-21T01:13:01.973Z,19.10
2023-05-21T01:15:32.285Z,19.00
2023-05-21T01:18:02.370Z,19.10
2023-05-21T01:20:33.852Z,19.10
2023-05-21T01:23:05.616Z,19.00
2023-05-21T01:25:35.707Z,19.10
2023-05-21T01:28:06.157Z,19.00
2023-05-21T01:30:37.209Z,19.10
2023-05-21T01:33:14.584Z,19.00
2023-05-21T01:35:49.306Z,19.10
2023-05-21T01:38:26.917Z,19.10
2023-05-21T01:41:00.298Z,19.10
2023-05-21T01:43:33.490Z,19.00
2023-05-21T01:46:04.166Z,19.10
2023-05-21T01:48:37.930Z,19.10
2023-05-21T01:51:08.356Z,19.00
2023-05-21T01:53:40.947Z,19.00
2023-05-21T01:56:11.870Z,19.00
2023-05-21T01:58:42.202Z,18.90
2023-05-21T02:01:12.556Z,19.00
2023-05-21T02:03:42.950Z,18.90
2023-05-21T02:06:13.266Z,18.90
2023-05-21T02:08:46.053Z,18.90
2023-05-21T02:11:16.072Z,19.00
2023-05-21T02:13:46.614Z,18.90
2023-05-21T02:16:16.542Z,18.90
2023-05-21T02:18:46.880Z,18.90
2023-05-21T02:21:16.966Z,19.00
2023-05-21T02:23:48.521Z,19.00
2023-05-21T02:26:18.744Z,19.00
2023-05-21T02:28:48.633Z,19.00
2023-05-21T02:31:18.559Z,19.10
2023-05-21T02:33:48.309Z,19.10
2023-05-21T02:36:25.868Z,19.10
2023-05-21T02:38:58.141Z,19.10
2023-05-21T02:41:27.946Z,19.20
2023-05-21T02:43:57.656Z,19.10
2023-05-21T02:46:27.291Z,19.00
2023-05-21T02:48:56.977Z,19.00
2023-05-21T02:51:26.879Z,19.00
2023-05-21T02:53:58.245Z,19.10
2023-05-21T02:56:29.092Z,19.10
2023-05-21T02:58:58.675Z,19.00
2023-05-21T03:01:31.726Z,19.00
2023-05-21T03:04:01.993Z,19.00
2023-05-21T03:06:32.617Z,19.00
2023-05-21T03:09:03.655Z,18.90
2023-05-21T03:11:33.379Z,19.00
2023-05-21T03:14:02.978Z,19.00
2023-05-21T03:16:34.985Z,19.00
2023-05-21T03:19:04.708Z,19.00
2023-05-21T03:21:34.998Z,18.90
2023-05-21T03:24:07.052Z,19.00
2023-05-21T03:26:36.851Z,19.00
2023-05-21T03:29:06.656Z,19.00
2023-05-21T03:31:38.148Z,19.00
2023-05-21T03:34:11.105Z,19.00
2023-05-21T03:36:41.316Z,19.00
2023-05-21T03:39:12.775Z,19.00
2023-05-21T03:41:42.786Z,19.10
2023-05-21T03:44:18.127Z,19.00
2023-05-21T03:46:56.433Z,19.00
2023-05-21T03:49:29.721Z,19.10
2023-05-21T03:52:00.254Z,19.00
2023-05-21T03:54:32.221Z,19.00
2023-05-21T03:57:06.746Z,19.00
2023-05-21T03:59:37.291Z,19.00
2023-05-21T04:02:07.907Z,19.10
2023-05-21T04:04:37.726Z,19.10
2023-05-21T04:07:15.722Z,19.20
2023-05-21T04:09:47.586Z,19.20
2023-05-21T04:12:18.318Z,19.20
2023-05-21T04:14:49.354Z,19.30
2023-05-21T04:17:19.676Z,19.40
2023-05-21T04:19:49.484Z,19.40
2023-05-21T04:22:19.199Z,19.40
2023-05-21T04:24:50.335Z,19.50
2023-05-21T04:27:24.778Z,19.50
2023-05-21T04:29:55.598Z,19.60
2023-05-21T04:32:29.090Z,19.60
2023-05-21T04:34:58.817Z,19.70
2023-05-21T04:37:29.032Z,19.80
2023-05-21T04:40:01.816Z,19.90
2023-05-21T04:42:33.473Z,19.90
2023-05-21T04:45:05.223Z,20.00
2023-05-21T04:47:38.139Z,20.00
2023-05-21T04:50:09.251Z,20.00
2023-05-21T04:52:40.611Z,20.10
2023-05-21T04:55:12.666Z,20.00
2023-05-21T04:57:42.269Z,20.00
2023-05-21T05:00:12.994Z,20.10
2023-05-21T05:02:45.656Z,20.10
2023-05-21T05:05:15.495Z,20.10
2023-05-21T05:07:45.518Z,20.00
2023-05-21T05:10:19.316Z,20.00
2023-05-21T05:12:50.250Z,19.90
2023-05-21T05:15:22.111Z,19.80
2023-05-21T05:17:55.112Z,19.80
2023-05-21T05:20:24.803Z,19.80
2023-05-21T05:22:54.317Z,19.80
2023-05-21T05:25:34.611Z,19.80
2023-05-21T05:28:04.788Z,19.80
2023-05-21T05:30:36.721Z,19.80
2023-05-21T05:33:18.961Z,19.90
2023-05-21T05:35:49.695Z,19.90
2023-05-21T05:38:20.835Z,19.80
2023-05-21T05:40:56.479Z,19.90
2023-05-21T05:43:29.165Z,19.90
2023-05-21T05:46:00.972Z,19.80
2023-05-21T05:48:34.517Z,19.90
2023-05-21T05:51:04.736Z,19.90
2023-05-21T05:53:35.077Z,19.90
2023-05-21T05:56:21.773Z,19.90
2023-05-21T05:58:51.382Z,20.00
2023-05-21T06:01:23.134Z,19.90
2023-05-21T06:03:53.490Z,20.10
2023-05-21T06:06:23.288Z,20.20
2023-05-21T06:08:53.383Z,20.20
2023-05-21T06:11:37.848Z,20.30
2023-05-21T06:14:07.454Z,20.40
2023-05-21T06:16:37.894Z,20.40
2023-05-21T06:19:08.272Z,20.50
2023-05-21T06:21:37.807Z,20.50
2023-05-21T06:24:09.684Z,20.50
2023-05-21T06:26:41.124Z,20.60
2023-05-21T06:29:10.928Z,20.70
2023-05-21T06:31:40.647Z,20.80
2023-05-21T06:34:11.180Z,20.90
2023-05-21T06:36:41.700Z,20.90
2023-05-21T06:39:11.612Z,20.90
2023-05-21T06:41:43.373Z,21.00
2023-05-21T06:44:31.826Z,21.10
2023-05-21T06:47:10.295Z,21.10
2023-05-21T06:49:40.556Z,21.30
2023-05-21T06:52:11.805Z,21.30
2023-05-21T06:54:42.832Z,21.40
2023-05-21T06:57:15.830Z,21.50
2023-05-21T06:59:54.654Z,21.60
2023-05-21T07:02:26.673Z,21.70
2023-05-21T07:04:57.136Z,21.90
2023-05-21T07:07:29.266Z,22.10
2023-05-21T07:09:59.525Z,22.20
2023-05-21T07:12:30.777Z,22.20
2023-05-21T07:15:02.525Z,22.40
2023-05-21T07:17:32.370Z,22.70
2023-05-21T07:20:02.165Z,23.00
2023-05-21T07:22:34.733Z,22.90
2023-05-21T07:25:04.550Z,22.80
2023-05-21T07:27:36.094Z,22.90
2023-05-21T07:30:06.705Z,22.90
2023-05-21T07:32:36.868Z,22.90
2023-05-21T07:35:07.371Z,22.90
2023-05-21T07:37:37.746Z,23.20
2023-05-21T07:40:09.155Z,23.30
2023-05-21T07:42:41.518Z,23.30
2023-05-21T07:45:12.373Z,23.20
2023-05-21T07:47:47.231Z,23.30
2023-05-21T07:50:17.309Z,23.50
2023-05-21T07:52:47.205Z,23.30
2023-05-21T07:55:19.996Z,23.20
2023-05-21T07:57:55.650Z,23.40
2023-05-21T08:00:30.919Z,23.70
2023-05-21T08:03:01.547Z,23.90
2023-05-21T08:05:31.952Z,24.00
2023-05-21T08:08:01.958Z,24.10
2023-05-21T08:10:32.186Z,24.00
2023-05-21T08:13:04.052Z,24.10
2023-05-21T08:15:34.172Z,24.20
2023-05-21T08:18:04.335Z,24.10
2023-05-21T08:20:36.173Z,24.20
2023-05-21T08:23:05.848Z,24.30
2023-05-21T08:25:42.958Z,24.40
2023-05-21T08:28:15.209Z,24.50
2023-05-21T08:30:44.914Z,24.50
2023-05-21T08:33:15.360Z,24.60
2023-05-21T08:35:45.249Z,24.60
2023-05-21T08:38:35.353Z,24.70
2023-05-21T08:41:36.900Z,24.70
2023-05-21T08:44:13.576Z,24.90
2023-05-21T08:46:47.270Z,24.80
2023-05-21T08:49:21.388Z,25.00
2023-05-21T08:51:52.420Z,25.00
2023-05-21T08:54:23.165Z,25.10
2023-05-21T08:56:55.025Z,25.30
2023-05-21T08:59:26.166Z,25.40
2023-05-21T09:01:58.056Z,25.30
2023-05-21T09:04:35.307Z,25.40
2023-05-21T09:07:06.044Z,25.20
2023-05-21T09:09:59.613Z,25.40
2023-05-21T09:12:30.554Z,25.50
2023-05-21T09:15:05.580Z,25.70
2023-05-21T09:17:38.476Z,25.80
2023-05-21T09:20:31.113Z,25.90
2023-05-21T09:23:07.181Z,25.80
2023-05-21T09:25:42.312Z,25.90
2023-05-21T09:28:17.146Z,26.00
2023-05-21T09:30:49.828Z,26.00
2023-05-21T09:33:27.836Z,26.10
2023-05-21T09:35:57.832Z,26.20
2023-05-21T09:38:30.002Z,26.20
2023-05-21T09:40:59.929Z,26.50
2023-05-21T09:43:33.932Z,26.60
2023-05-21T09:46:05.748Z,26.60
2023-05-21T09:48:37.452Z,26.50
2023-05-21T09:51:14.938Z,26.50
2023-05-21T09:53:52.633Z,26.60
2023-05-21T09:56:25.338Z,26.70
2023-05-21T09:58:57.280Z,26.70
2023-05-21T10:01:29.166Z,26.80
2023-05-21T10:04:01.402Z,26.60
2023-05-21T10:06:33.931Z,26.60
2023-05-21T10:09:08.197Z,26.90
2023-05-21T10:11:39.147Z,26.90
2023-05-21T10:14:11.214Z,27.00
2023-05-21T10:16:43.305Z,27.10
2023-05-21T10:19:13.404Z,26.90
2023-05-21T10:21:43.916Z,27.00
2023-05-21T10:24:14.658Z,27.10
2023-05-21T10:26:45.487Z,27.30
2023-05-21T10:29:18.156Z,27.50
2023-05-21T10:31:54.443Z,27.30
2023-05-21T10:34:25.275Z,27.50
2023-05-21T10:36:57.537Z,27.30
2023-05-21T10:39:27.760Z,27.20
2023-05-21T10:42:07.820Z,27.20
2023-05-21T10:44:51.450Z,27.30
2023-05-21T10:47:57.844Z,27.50
2023-05-21T10:50:41.917Z,27.60
2023-05-21T10:53:22.008Z,27.50
2023-05-21T10:56:02.260Z,27.60
2023-05-21T10:58:46.217Z,27.60
2023-05-21T11:01:19.844Z,28.10
2023-05-21T11:03:51.411Z,28.10
2023-05-21T11:06:27.226Z,28.10
2023-05-21T11:08:57.130Z,27.60
2023-05-21T11:11:44.561Z,27.90
2023-05-21T11:14:40.151Z,28.10
2023-05-21T11:17:15.297Z,28.00
2023-05-21T11:19:48.307Z,28.00
2023-05-21T11:22:25.171Z,28.20
2023-05-21T11:24:57.540Z,28.30
2023-05-21T11:27:36.182Z,28.30
2023-05-21T11:30:10.399Z,28.60
2023-05-21T11:32:41.264Z,28.80
2023-05-21T11:35:16.551Z,28.90
2023-05-21T11:37:55.691Z,28.30
2023-05-21T11:40:28.572Z,28.00
2023-05-21T11:42:58.989Z,28.60
2023-05-21T11:45:34.333Z,29.00
2023-05-21T11:48:04.672Z,29.60
2023-05-21T11:50:37.334Z,29.30
2023-05-21T11:53:10.419Z,29.50
2023-05-21T11:55:43.886Z,28.40
2023-05-21T11:58:16.920Z,27.60
2023-05-21T12:00:46.945Z,28.80
2023-05-21T12:03:17.315Z,28.80
2023-05-21T12:05:49.410Z,28.50
2023-05-21T12:08:25.890Z,29.30
2023-05-21T12:11:00.454Z,29.30
2023-05-21T12:13:33.477Z,29.60
2023-05-21T12:16:06.851Z,28.30
2023-05-21T12:18:38.961Z,27.30
2023-05-21T12:21:12.371Z,28.30
2023-05-21T12:23:43.398Z,28.80
2023-05-21T12:26:14.252Z,29.20
2023-05-21T12:28:44.148Z,29.50
2023-05-21T12:31:18.096Z,29.70
2023-05-21T12:33:50.533Z,30.00
2023-05-21T12:36:32.328Z,30.00
2023-05-21T12:39:02.861Z,30.00
2023-05-21T12:41:32.975Z,30.20
2023-05-21T12:44:05.892Z,30.30
2023-05-21T12:46:37.028Z,30.50
2023-05-21T12:49:06.913Z,29.50
2023-05-21T12:51:43.843Z,29.90
2023-05-21T12:54:16.778Z,29.00
2023-05-21T12:56:51.721Z,28.00
2023-05-21T12:59:24.606Z,29.30
2023-05-21T13:01:56.100Z,30.30
2023-05-21T13:04:27.596Z,30.80
2023-05-21T13:06:59.870Z,30.60
2023-05-21T13:09:31.649Z,29.40
2023-05-21T13:12:01.950Z,28.90
2023-05-21T13:14:33.598Z,28.80
2023-05-21T13:17:05.559Z,30.30
2023-05-21T13:19:35.734Z,30.70
2023-05-21T13:22:07.758Z,30.70
2023-05-21T13:24:42.451Z,30.60
2023-05-21T13:27:12.417Z,30.80
2023-05-21T13:29:43.633Z,31.30
2023-05-21T13:32:13.705Z,31.90
2023-05-21T13:34:51.651Z,31.10
2023-05-21T13:37:30.174Z,31.10
2023-05-21T13:40:01.523Z,31.70
2023-05-21T13:42:33.812Z,32.00
2023-05-21T13:45:04.830Z,31.20
2023-05-21T13:47:39.764Z,31.80
2023-05-21T13:50:20.849Z,31.70
2023-05-21T13:52:53.636Z,31.20
2023-05-21T13:55:24.003Z,31.70
2023-05-21T13:57:54.165Z,31.70
2023-05-21T14:00:23.771Z,31.80
2023-05-21T14:02:54.698Z,31.90
2023-05-21T14:05:33.445Z,31.40
2023-05-21T14:08:04.677Z,31.90
2023-05-21T14:10:34.528Z,31.50
2023-05-21T14:13:15.828Z,31.40
2023-05-21T14:15:52.851Z,31.30
2023-05-21T14:18:22.697Z,30.90
2023-05-21T14:20:56.057Z,31.70
2023-05-21T14:23:27.206Z,32.40
2023-05-21T14:25:57.009Z,32.90
2023-05-21T14:28:26.512Z,33.30
2023-05-21T14:30:56.045Z,32.50
2023-05-21T14:33:25.753Z,31.50
2023-05-21T14:35:56.170Z,30.70
2023-05-21T14:38:28.423Z,31.30
2023-05-21T14:40:58.253Z,31.30
2023-05-21T14:43:27.950Z,31.80
2023-05-21T14:45:57.702Z,31.80
2023-05-21T14:48:29.525Z,31.90
2023-05-21T14:50:59.630Z,31.90
2023-05-21T14:53:31.083Z,32.20
2023-05-21T14:56:00.855Z,33.10
2023-05-21T14:58:30.723Z,33.10
2023-05-21T15:01:01.284Z,32.30
2023-05-21T15:03:31.121Z,32.40
2023-05-21T15:06:00.862Z,32.70
2023-05-21T15:08:32.300Z,33.00
2023-05-21T15:11:01.810Z,33.30
2023-05-21T15:13:31.314Z,32.90
2023-05-21T15:16:01.048Z,32.60
2023-05-21T15:18:30.742Z,32.70
2023-05-21T15:21:00.569Z,32.40
2023-05-21T15:23:32.622Z,32.50
2023-05-21T15:26:02.331Z,32.80
2023-05-21T15:28:31.822Z,33.00
2023-05-21T15:31:01.644Z,32.70
2023-05-21T15:33:31.148Z,33.00
2023-05-21T15:36:01.126Z,33.10
2023-05-21T15:38:33.338Z,33.30
2023-05-21T15:41:02.941Z,33.20
2023-05-21T15:43:33.156Z,33.30
2023-05-21T15:46:02.869Z,33.40
2023-05-21T15:48:32.588Z,33.60
2023-05-21T15:51:02.309Z,33.40
2023-05-21T15:53:33.330Z,33.10
2023-05-21T15:56:03.599Z,33.10
2023-05-21T15:58:33.898Z,33.30
2023-05-21T16:01:05.543Z,33.50
2023-05-21T16:03:35.314Z,33.40
2023-05-21T16:06:05.059Z,33.10
2023-05-21T16:08:36.524Z,33.30
2023-05-21T16:11:06.345Z,33.10
2023-05-21T16:13:36.347Z,33.30
2023-05-21T16:16:06.455Z,33.30
2023-05-21T16:18:36.164Z,33.10
2023-05-21T16:21:06.172Z,33.40
2023-05-21T16:23:48.378Z,33.50
2023-05-21T16:26:18.093Z,32.60
2023-05-21T16:28:47.996Z,32.50
2023-05-21T16:31:17.808Z,33.20
2023-05-21T16:33:48.139Z,33.20
2023-05-21T16:36:18.159Z,32.80
2023-05-21T16:38:49.706Z,32.70
2023-05-21T16:41:19.626Z,33.10
2023-05-21T16:43:50.670Z,33.30
2023-05-21T16:46:20.413Z,32.90
2023-05-21T16:48:50.585Z,32.10
2023-05-21T16:51:20.401Z,32.00
2023-05-21T16:53:51.648Z,31.60
2023-05-21T16:56:21.876Z,31.60
2023-05-21T16:58:51.685Z,32.00
2023-05-21T17:01:21.421Z,32.20
2023-05-21T17:03:51.269Z,32.40
2023-05-21T17:06:21.236Z,32.10
2023-05-21T17:08:52.591Z,31.60
2023-05-21T17:11:22.383Z,31.40
2023-05-21T17:13:52.106Z,31.40
2023-05-21T17:16:21.930Z,31.30
2023-05-21T17:18:51.736Z,30.90
2023-05-21T17:21:21.628Z,30.90
2023-05-21T17:23:53.290Z,31.00
2023-05-21T17:26:23.724Z,30.90
2023-05-21T17:28:53.731Z,30.90
2023-05-21T17:31:23.584Z,30.90
2023-05-21T17:33:53.369Z,30.60
2023-05-21T17:36:23.071Z,30.30
2023-05-21T17:38:53.999Z,30.70
2023-05-21T17:41:25.964Z,30.30
2023-05-21T17:43:56.382Z,30.00
2023-05-21T17:46:26.044Z,29.60
2023-05-21T17:48:55.797Z,29.10
2023-05-21T17:51:25.519Z,28.70
2023-05-21T17:53:56.654Z,28.10
2023-05-21T17:56:27.076Z,28.00
2023-05-21T17:58:56.895Z,27.90
2023-05-21T18:01:26.603Z,27.80
2023-05-21T18:03:56.146Z,27.80
2023-05-21T18:06:26.019Z,27.70
2023-05-21T18:09:01.767Z,27.50
2023-05-21T18:11:34.454Z,27.30
2023-05-21T18:14:04.779Z,27.30
2023-05-21T18:16:35.968Z,27.00
2023-05-21T18:19:07.215Z,26.80
2023-05-21T18:21:37.084Z,26.60
2023-05-21T18:24:09.348Z,26.30
2023-05-21T18:26:41.102Z,26.30
2023-05-21T18:29:11.530Z,26.40
2023-05-21T18:31:42.270Z,26.20
2023-05-21T18:34:17.849Z,26.10
2023-05-21T18:36:48.669Z,26.10
2023-05-21T18:39:24.888Z,25.90
2023-05-21T18:42:11.506Z,25.80
2023-05-21T18:44:42.360Z,25.60
2023-05-21T18:47:12.789Z,25.80
2023-05-21T18:49:42.290Z,25.80
2023-05-21T18:52:11.794Z,25.50
2023-05-21T18:54:43.040Z,25.60
2023-05-21T18:57:13.975Z,25.40
2023-05-21T18:59:43.888Z,25.40
2023-05-21T19:02:13.969Z,25.10
2023-05-21T19:04:43.763Z,25.10
2023-05-21T19:07:13.646Z,25.30
2023-05-21T19:09:45.115Z,25.20
2023-05-21T19:12:14.896Z,25.00
2023-05-21T19:14:45.624Z,24.90
2023-05-21T19:17:15.736Z,24.90
2023-05-21T19:19:45.672Z,24.80
2023-05-21T19:22:15.787Z,24.70
2023-05-21T19:24:47.437Z,24.70
2023-05-21T19:27:18.378Z,24.80
2023-05-21T19:29:48.912Z,24.90
2023-05-21T19:32:21.269Z,24.70
2023-05-21T19:34:51.705Z,24.50
2023-05-21T19:37:22.343Z,24.30
2023-05-21T19:39:53.388Z,24.00
2023-05-21T19:42:22.871Z,24.00
2023-05-21T19:44:53.724Z,24.00
2023-05-21T19:47:23.664Z,24.10
2023-05-21T19:49:53.446Z,24.20
2023-05-21T19:52:23.041Z,24.00
2023-05-21T19:54:54.353Z,23.90
2023-05-21T19:57:23.998Z,24.20
2023-05-21T19:59:53.505Z,24.30
2023-05-21T20:02:24.693Z,24.40
2023-05-21T20:04:57.336Z,24.20
2023-05-21T20:07:27.243Z,24.10
2023-05-21T20:09:58.488Z,24.20
2023-05-21T20:12:28.198Z,24.00
2023-05-21T20:14:59.867Z,24.10
2023-05-21T20:17:31.024Z,23.60
2023-05-21T20:20:01.629Z,23.70
2023-05-21T20:22:31.770Z,23.80
2023-05-21T20:25:04.226Z,23.70
2023-05-21T20:27:35.564Z,23.90
2023-05-21T20:30:06.000Z,23.80
2023-05-21T20:32:35.966Z,23.90
2023-05-21T20:35:06.019Z,23.80
2023-05-21T20:37:35.722Z,23.80
2023-05-21T20:40:07.638Z,23.90
2023-05-21T20:42:37.723Z,23.80
2023-05-21T20:45:08.243Z,23.60
2023-05-21T20:47:38.879Z,23.50
2023-05-21T20:50:09.611Z,23.40
2023-05-21T20:52:39.669Z,23.20
2023-05-21T20:55:13.336Z,23.20
2023-05-21T20:57:43.142Z,22.90
2023-05-21T21:00:13.887Z,22.80
2023-05-21T21:02:44.361Z,22.90
2023-05-21T21:05:14.013Z,23.10
2023-05-21T21:07:43.610Z,23.00
2023-05-21T21:10:14.958Z,23.00
2023-05-21T21:12:44.658Z,23.20
2023-05-21T21:15:14.589Z,23.10
2023-05-21T21:17:44.993Z,23.00
2023-05-21T21:20:17.910Z,22.90
2023-05-21T21:22:48.112Z,22.70
2023-05-21T21:25:19.574Z,22.80
2023-05-21T21:27:49.272Z,22.90
2023-05-21T21:30:19.191Z,23.00
2023-05-21T21:32:49.790Z,22.80
2023-05-21T21:35:19.428Z,22.80
2023-05-21T21:37:49.366Z,22.80
2023-05-21T21:40:20.807Z,22.70
2023-05-21T21:42:50.398Z,22.80
2023-05-21T21:45:20.109Z,22.90
2023-05-21T21:47:49.860Z,22.90
2023-05-21T21:50:19.739Z,22.90
2023-05-21T21:52:49.358Z,22.90
2023-05-21T21:55:20.598Z,22.60
2023-05-21T21:57:50.308Z,22.80
2023-05-21T22:00:21.243Z,22.80
2023-05-21T22:02:50.997Z,22.80
2023-05-21T22:05:20.759Z,22.70
2023-05-21T22:07:50.377Z,22.80
2023-05-21T22:10:21.816Z,22.90
2023-05-21T22:12:51.522Z,22.80
2023-05-21T22:15:25.647Z,22.80
2023-05-21T22:17:56.025Z,22.70
2023-05-21T22:20:26.189Z,22.60
2023-05-21T22:22:55.901Z,22.70
2023-05-21T22:25:27.554Z,22.80
2023-05-21T22:27:57.475Z,22.90
2023-05-21T22:30:26.967Z,22.80
2023-05-21T22:32:57.220Z,22.80
2023-05-21T22:35:27.531Z,22.90
2023-05-21T22:37:57.220Z,22.90
2023-05-21T22:40:28.471Z,22.80
2023-05-21T22:42:58.378Z,22.90
2023-05-21T22:45:28.912Z,22.90
2023-05-21T22:48:02.041Z,22.90
2023-05-21T22:50:33.276Z,22.70
2023-05-21T22:53:03.234Z,22.80
2023-05-21T22:55:34.508Z,22.80
2023-05-21T22:58:04.935Z,22.80
2023-05-21T23:00:34.754Z,22.80
2023-05-21T23:03:05.037Z,22.90
2023-05-21T23:05:34.653Z,23.00
2023-05-21T23:08:04.280Z,22.90
2023-05-21T23:10:35.925Z,22.80
2023-05-21T23:13:05.747Z,22.90
2023-05-21T23:15:39.259Z,23.00
2023-05-21T23:18:09.293Z,23.00
2023-05-21T23:20:41.361Z,23.00
2023-05-21T23:23:11.856Z,22.90
2023-05-21T23:25:43.031Z,22.90
2023-05-21T23:28:12.819Z,22.80
2023-05-21T23:30:42.438Z,22.80
2023-05-21T23:33:12.055Z,22.70
2023-05-21T23:35:41.731Z,22.40
2023-05-21T23:38:11.557Z,22.30
2023-05-21T23:40:42.687Z,22.40
2023-05-21T23:43:12.821Z,22.50
2023-05-21T23:45:42.971Z,22.40
2023-05-21T23:48:13.174Z,22.30
2023-05-21T23:50:42.666Z,22.30
2023-05-21T23:53:12.878Z,22.30
2023-05-21T23:55:44.935Z,22.30
2023-05-21T23:58:14.867Z,22.20
